Time;durP1;ratioP1;P1;durP2;ratioP2;P2;SDS_P1;SDS_P2;PMS_P1;PMS_P2;Temp;Humidity;BMP_temperature;BMP_pressure;BME280_temperature;BME280_humidity;BME280_pressure;Samples;Min_cycle;Max_cycle;Signal;HPM_P1;HPM_P2
2022/09/28 00:01:19;;;;;;;10.40;9.47;;;;;;;;;;1922365;74;26691;-79
2022/09/28 00:03:51;;;;;;;13.30;9.50;;;;;;;;;;1862991;74;26241;-79
2022/09/28 00:06:24;;;;;;;10.40;9.47;;;;;;;;;;1888235;74;26984;-79
2022/09/28 00:08:53;;;;;;;10.97;9.90;;;;;;;;;;1922369;74;26244;-79
2022/09/28 00:11:27;;;;;;;10.60;9.70;;;;;;;;;;1922386;74;26314;-79
2022/09/28 00:13:57;;;;;;;10.93;9.73;;;;;;;;;;1922230;74;26245;-80
2022/09/28 00:16:28;;;;;;;11.00;9.90;;;;;;;;;;1922369;74;26248;-79
2022/09/28 00:18:56;;;;;;;13.13;9.43;;;;;;;;;;1922443;74;26201;-79
2022/09/28 00:21:27;;;;;;;10.70;9.60;;;;;;;;;;1837580;77;26282;-79
2022/09/28 00:24:16;;;;;;;10.83;9.80;;;;;;;;;;1822000;77;26948;-79
2022/09/28 00:26:47;;;;;;;11.27;9.57;;;;;;;;;;1829537;77;26329;-79
2022/09/28 00:29:23;;;;;;;10.87;9.87;;;;;;;;;;1851106;76;26312;-79
2022/09/28 00:31:58;;;;;;;10.30;9.40;;;;;;;;;;1889615;74;26675;-79
2022/09/28 00:34:26;;;;;;;10.80;9.70;;;;;;;;;;1921647;74;27389;-79
2022/09/28 00:36:54;;;;;;;11.80;9.60;;;;;;;;;;1922345;74;26318;-79
2022/09/28 00:39:24;;;;;;;10.20;9.10;;;;;;;;;;1888232;74;26318;-79
2022/09/28 00:44:52;;;;;;;11.00;9.83;;;;;;;8.35;100.00;98478.61;1980944;72;29807;-80
2022/09/28 00:50:52;;;;;;;10.77;9.13;;;;;;;8.26;100.00;98475.02;2058251;69;28601;-76
2022/09/28 00:56:30;;;;;;;10.03;9.10;;;;;;;8.45;100.00;98474.70;2051783;69;27919;-77
2022/09/28 01:02:02;;;;;;;10.27;9.20;;;;;;;8.27;100.00;98481.36;2056419;69;28143;-78
2022/09/28 01:04:34;;;;;;;11.20;9.30;;;;;;;8.16;100.00;98491.40;1978180;72;26260;-77
2022/09/28 01:07:05;;;;;;;9.67;8.80;;;;;;;8.19;100.00;98480.24;1909287;74;26291;-78
2022/09/28 01:09:39;;;;;;;10.80;9.37;;;;;;;8.29;100.00;98485.48;1981895;72;26200;-78
2022/09/28 01:12:11;;;;;;;10.17;8.93;;;;;;;8.35;100.00;98477.23;1978394;72;26213;-77
2022/09/28 01:14:43;;;;;;;10.67;9.57;;;;;;;8.51;100.00;98478.36;1978655;72;26299;-77
2022/09/28 01:17:16;;;;;;;10.07;9.10;;;;;;;8.56;100.00;98469.85;1977982;72;26270;-77
2022/09/28 01:20:32;;;;;;;9.93;9.00;;;;;;;8.61;100.00;98477.16;1876372;74;26232;-77
2022/09/28 01:26:55;;;;;;;10.93;9.10;;;;;;;8.62;100.00;98467.73;2025243;69;27758;-78
2022/09/28 01:29:37;;;;;;;10.00;9.30;;;;;;;8.48;100.00;98472.64;1943195;74;26285;-77
2022/09/28 01:32:21;;;;;;;9.90;9.00;;;;;;;8.61;100.00;98471.63;1890522;76;26253;-76
2022/09/28 01:34:59;;;;;;;10.03;9.23;;;;;;;8.52;100.00;98467.51;1913518;75;26421;-77
2022/09/28 01:40:32;;;;;;;10.10;9.17;;;;;;;8.54;100.00;98461.66;2057304;69;27531;-78
2022/09/28 01:43:07;;;;;;;10.23;9.17;;;;;;;8.46;100.00;98465.27;1934722;73;26648;-77
2022/09/28 01:48:42;;;;;;;9.87;8.83;;;;;;;8.48;100.00;98456.05;2055622;69;28521;-77
2022/09/28 01:54:17;;;;;;;10.47;9.47;;;;;;;8.32;100.00;98459.10;2025125;68;28074;-78
2022/09/28 01:56:51;;;;;;;9.30;8.50;;;;;;;8.31;100.00;98464.39;2014899;69;26299;-78
2022/09/28 01:59:25;;;;;;;9.20;8.27;;;;;;;8.32;100.00;98463.25;2008026;69;26372;-78
2022/09/28 02:01:59;;;;;;;10.03;9.20;;;;;;;8.22;100.00;98465.19;1926428;72;26325;-78
2022/09/28 02:04:35;;;;;;;12.00;9.03;;;;;;;8.32;100.00;98463.25;1925893;71;26261;-77
2022/09/28 02:10:10;;;;;;;9.57;8.73;;;;;;;8.36;100.00;98458.12;2058629;69;28079;-76
2022/09/28 02:15:53;;;;;;;9.40;8.60;;;;;;;8.40;100.00;98458.27;1995175;71;32491;-78
2022/09/28 02:21:29;;;;;;;9.10;8.30;;;;;;;8.51;100.00;98454.02;2010274;71;28374;-77
2022/09/28 02:24:04;;;;;;;9.87;8.50;;;;;;;8.43;100.00;98463.16;1938473;73;26256;-78
2022/09/28 02:26:40;;;;;;;9.50;8.50;;;;;;;8.52;100.00;98460.59;1900957;74;26343;-78
2022/09/28 02:29:12;;;;;;;10.40;8.87;;;;;;;8.46;100.00;98456.39;1861891;77;26267;-78
2022/09/28 02:34:41;;;;;;;9.20;8.40;;;;;;;8.61;100.00;98450.31;2031666;69;28594;-78
2022/09/28 02:40:17;;;;;;;8.20;7.50;;;;;;;8.50;100.00;98443.53;2031320;69;27535;-78
2022/09/28 02:42:55;;;;;;;8.67;7.70;;;;;;;8.53;100.00;98460.84;1967965;72;26702;-78
2022/09/28 02:45:39;;;;;;;9.03;8.27;;;;;;;8.46;100.00;98459.16;1980112;69;26227;-76
2022/09/28 02:48:18;;;;;;;8.97;7.73;;;;;;;8.46;100.00;98460.55;1997877;69;27363;-76
2022/09/28 02:50:53;;;;;;;8.03;7.47;;;;;;;8.40;100.00;98464.62;2004841;69;26789;-77
2022/09/28 02:53:37;;;;;;;8.20;7.50;;;;;;;8.23;100.00;98461.86;1946525;71;26244;-76
2022/09/28 02:56:17;;;;;;;8.80;7.77;;;;;;;8.26;100.00;98462.57;1983712;69;26244;-76
2022/09/28 03:02:04;;;;;;;8.43;7.60;;;;;;;8.16;100.00;98456.84;2011242;70;32696;-76
2022/09/28 03:04:40;;;;;;;8.07;7.30;;;;;;;8.18;100.00;98468.36;1960597;71;26321;-77
2022/09/28 03:10:15;;;;;;;8.93;7.30;;;;;;;8.16;100.00;98454.07;2057309;69;28107;-78
2022/09/28 03:12:50;;;;;;;8.90;8.10;;;;;;;8.07;100.00;98468.47;2009370;70;26238;-78
2022/09/28 03:15:27;;;;;;;8.20;7.43;;;;;;;8.06;100.00;98468.22;1934617;74;26711;-78
2022/09/28 03:18:00;;;;;;;8.23;7.47;;;;;;;8.14;100.00;98469.34;1940269;73;26271;-78
2022/09/28 03:20:35;;;;;;;8.13;7.47;;;;;;;8.11;100.00;98470.83;1939267;73;26343;-83
2022/09/28 03:23:07;;;;;;;7.43;6.93;;;;;;;8.08;100.00;98472.87;1974176;72;26319;-83
2022/09/28 03:28:41;;;;;;;7.57;7.07;;;;;;;7.95;100.00;98473.03;2057321;69;28120;-84
2022/09/28 03:31:13;;;;;;;8.43;7.63;;;;;;;7.93;100.00;98475.30;1978593;72;26195;-83
2022/09/28 03:33:47;;;;;;;8.00;7.30;;;;;;;7.99;100.00;98466.53;1978549;72;26201;-83
2022/09/28 03:36:19;;;;;;;9.97;7.03;;;;;;;8.03;100.00;98465.30;1978366;72;26335;-84
2022/09/28 03:41:54;;;;;;;7.67;7.00;;;;;;;7.95;100.00;98463.36;2003230;69;28140;-83
2022/09/28 03:47:24;;;;;;;8.07;7.27;;;;;;;7.68;100.00;98468.07;2059059;69;28457;-83
2022/09/28 03:52:54;;;;;;;8.80;8.10;;;;;;;7.50;100.00;98470.56;2059323;69;27875;-83
2022/09/28 03:58:28;;;;;;;8.80;8.27;;;;;;;7.41;100.00;98477.20;2051588;69;28553;-83
2022/09/28 04:04:03;;;;;;;8.80;8.20;;;;;;;7.23;100.00;98477.77;2059530;69;28537;-83
2022/09/28 04:09:40;;;;;;;10.23;8.30;;;;;;;7.13;100.00;98482.19;1919993;73;33774;-83
2022/09/28 04:12:11;;;;;;;8.93;8.17;;;;;;;6.95;100.00;98492.35;1895452;74;26266;-84
2022/09/28 04:14:43;;;;;;;7.57;7.13;;;;;;;6.95;100.00;98491.53;1919651;73;26657;-83
2022/09/28 04:17:15;;;;;;;8.63;7.83;;;;;;;6.99;100.00;98497.48;1900768;74;26367;-84
2022/09/28 04:19:46;;;;;;;8.03;7.40;;;;;;;7.10;100.00;98496.05;1910499;74;26320;-83
2022/09/28 04:22:17;;;;;;;8.67;7.63;;;;;;;7.13;100.00;98496.81;1900586;74;26270;-83
2022/09/28 04:24:49;;;;;;;8.00;7.23;;;;;;;7.17;100.00;98499.73;1884986;74;26366;-85
2022/09/28 04:30:12;;;;;;;8.13;7.40;;;;;;;7.35;100.00;98501.41;1874257;76;26292;-84
2022/09/28 04:32:45;;;;;;;8.33;7.73;;;;;;;7.46;100.00;98500.53;1878674;76;26236;-83
2022/09/28 04:35:18;;;;;;;8.87;7.90;;;;;;;7.52;100.00;98494.55;1868479;76;27291;-83
2022/09/28 04:37:50;;;;;;;8.73;7.47;;;;;;;7.62;100.00;98503.89;1867595;76;26359;-83
2022/09/28 04:40:22;;;;;;;9.43;7.70;;;;;;;7.68;100.00;98502.61;1867110;76;26795;-83
2022/09/28 04:42:56;;;;;;;8.23;7.47;;;;;;;7.63;100.00;98510.23;1866233;76;26225;-83
2022/09/28 04:45:28;;;;;;;8.00;7.53;;;;;;;7.63;100.00;98508.28;1873724;76;26308;-83
2022/09/28 04:48:00;;;;;;;8.63;7.73;;;;;;;7.72;100.00;98509.67;1871297;76;26360;-83
2022/09/28 04:50:33;;;;;;;8.50;7.90;;;;;;;7.73;100.00;98506.59;1867548;76;26293;-83
2022/09/28 04:53:05;;;;;;;9.70;7.83;;;;;;;7.71;100.00;98508.04;1868234;76;26402;-83
2022/09/28 04:55:39;;;;;;;9.87;8.23;;;;;;;7.64;100.00;98507.16;1844666;76;26295;-84
2022/09/28 04:58:12;;;;;;;8.10;7.50;;;;;;;7.61;100.00;98502.84;1768375;79;26779;-83
2022/09/28 05:03:52;;;;;;;10.60;8.10;;;;;;;7.73;100.00;98494.17;1916678;73;32562;-83
2022/09/28 05:06:27;;;;;;;10.20;7.97;;;;;;;7.78;100.00;98502.30;1889900;74;26297;-83
2022/09/28 05:09:00;;;;;;;8.03;7.43;;;;;;;7.71;100.00;98498.38;1900618;75;26328;-83
2022/09/28 05:11:32;;;;;;;8.10;7.40;;;;;;;7.73;100.00;98500.25;1900869;75;26191;-83
2022/09/28 05:14:04;;;;;;;8.23;7.70;;;;;;;7.68;100.00;98502.61;1899878;74;26312;-83
2022/09/28 05:16:36;;;;;;;8.17;7.37;;;;;;;7.64;100.00;98507.72;1861637;76;26378;-82
2022/09/28 05:22:14;;;;;;;8.07;7.27;;;;;;;7.55;100.00;98493.89;2012982;70;32481;-82
2022/09/28 05:27:45;;;;;;;9.20;7.63;;;;;;;7.56;100.00;98497.47;2060051;69;28140;-83
2022/09/28 05:33:14;;;;;;;8.50;7.70;;;;;;;7.33;100.00;98498.97;2057169;69;28019;-82
2022/09/28 05:35:47;;;;;;;10.50;8.33;;;;;;;7.28;100.00;98503.25;1979298;72;27083;-82
2022/09/28 05:38:19;;;;;;;8.77;8.03;;;;;;;7.27;100.00;98500.23;1979845;72;26271;-83
2022/09/28 05:40:50;;;;;;;8.37;7.57;;;;;;;7.39;100.00;98507.11;1979250;72;26499;-83
2022/09/28 05:43:24;;;;;;;8.77;7.80;;;;;;;7.51;100.00;98504.52;1944692;72;26275;-83
2022/09/28 05:45:56;;;;;;;8.83;8.03;;;;;;;7.47;100.00;98507.13;1978724;72;26209;-83
2022/09/28 05:48:29;;;;;;;10.57;8.57;;;;;;;7.53;100.00;98507.20;1978783;72;26330;-83
2022/09/28 05:51:00;;;;;;;9.83;8.13;;;;;;;7.47;100.00;98510.45;1978621;72;26750;-82
2022/09/28 05:53:37;;;;;;;6.80;6.30;;;;;;;7.44;100.00;98506.95;1978898;72;26268;-83
2022/09/28 05:56:09;;;;;;;9.10;6.80;;;;;;;7.46;100.00;98507.44;1978745;72;26342;-83
2022/09/28 05:58:52;;;;;;;9.87;7.00;;;;;;;7.43;100.00;98511.67;1979300;72;26206;-92
2022/09/28 06:01:23;;;;;;;9.30;7.67;;;;;;;7.47;100.00;98503.55;1979011;72;26755;-84
2022/09/28 06:03:54;;;;;;;9.77;7.37;;;;;;;7.38;100.00;98515.13;1978836;72;26288;-84
2022/09/28 06:06:25;;;;;;;7.73;7.10;;;;;;;7.47;100.00;98509.06;1978464;72;26213;-84
2022/09/28 06:08:58;;;;;;;8.20;7.03;;;;;;;7.52;100.00;98502.84;1978932;72;26209;-83
2022/09/28 06:14:27;;;;;;;6.93;6.23;;;;;;;7.68;100.00;98501.23;2049809;69;28206;-85
2022/09/28 06:17:01;;;;;;;8.17;6.70;;;;;;;7.73;100.00;98511.31;1998955;71;26682;-86
2022/09/28 06:19:31;;;;;;;10.80;7.30;;;;;;;7.77;100.00;98513.10;2021675;70;26229;-87
2022/09/28 06:22:05;;;;;;;8.00;7.30;;;;;;;7.82;100.00;98513.52;2017581;71;26250;-87
2022/09/28 06:24:39;;;;;;;8.57;7.87;;;;;;;7.84;100.00;98507.08;1991725;71;26252;-88
2022/09/28 06:27:13;;;;;;;8.70;7.37;;;;;;;7.85;100.00;98510.09;1938137;72;26788;-87
2022/09/28 06:29:47;;;;;;;8.93;8.00;;;;;;;7.86;100.00;98515.05;1939897;72;26258;-86
2022/09/28 06:32:18;;;;;;;7.93;7.20;;;;;;;8.12;100.00;98511.16;1974659;72;26415;-87
2022/09/28 06:37:48;;;;;;;6.90;6.23;;;;;;;8.33;100.00;98510.52;1978898;72;27916;-84
2022/09/28 06:43:23;;;;;;;7.63;6.50;;;;;;;8.29;100.00;98510.90;2045421;69;28480;-85
2022/09/28 06:45:54;;;;;;;10.67;7.30;;;;;;;8.40;100.00;98513.02;1996211;70;26244;-87
2022/09/28 06:48:27;;;;;;;7.73;7.10;;;;;;;8.47;100.00;98527.16;1957207;71;26698;-88
2022/09/28 06:50:58;;;;;;;7.33;6.80;;;;;;;8.56;100.00;98530.72;1964658;72;26358;-89
2022/09/28 06:53:32;;;;;;;7.83;7.13;;;;;;;8.52;100.00;98530.31;1955890;73;26271;-89
2022/09/28 06:56:03;;;;;;;8.77;6.97;;;;;;;8.56;100.00;98533.48;1930663;71;26295;-89
2022/09/28 06:58:36;;;;;;;7.93;7.13;;;;;;;8.58;100.00;98533.17;1930901;72;26714;-90
2022/09/28 07:04:06;;;;;;;9.30;7.07;;;;;;;8.94;100.00;98516.94;2022479;71;28114;-90
2022/09/28 07:09:34;;;;;;;7.40;6.57;;;;;;;9.32;100.00;98511.98;2023296;71;27995;-87
2022/09/28 07:12:08;;;;;;;8.23;7.53;;;;;;;9.38;100.00;98522.53;1955468;71;26206;-87
2022/09/28 07:17:39;;;;;;;8.60;7.20;;;;;;;9.85;100.00;98514.08;2060017;69;28026;-91
2022/09/28 07:23:12;;;;;;;8.17;7.37;;;;;;;9.93;100.00;98512.63;2011942;71;28018;-87
2022/09/28 07:25:48;;;;;;;8.70;7.80;;;;;;;9.98;100.00;98524.91;1926623;73;26268;-88
2022/09/28 07:28:22;;;;;;;8.70;7.20;;;;;;;10.08;100.00;98522.88;1915081;75;26769;-88
2022/09/28 07:33:55;;;;;;;8.60;7.20;;;;;;;10.41;100.00;98507.92;1970245;72;28243;-87
2022/09/28 07:39:25;;;;;;;7.80;6.87;;;;;;;10.65;100.00;98514.16;2011801;71;27526;-83
2022/09/28 07:41:57;;;;;;;8.00;6.57;;;;;;;10.82;100.00;98513.97;1941854;73;26219;-83
2022/09/28 07:47:36;;;;;;;7.63;7.03;;;;;;;11.14;100.00;98501.16;2008640;70;33165;-84
2022/09/28 07:50:11;;;;;;;7.70;7.00;;;;;;;11.17;100.00;98507.40;1893733;75;26554;-84
2022/09/28 07:52:44;;;;;;;6.67;6.13;;;;;;;12.88;100.00;98505.81;1911617;74;26711;-83
2022/09/28 07:55:16;;;;;;;6.37;5.87;;;;;;;15.59;100.00;98481.94;1854349;75;26289;-84
2022/09/28 07:57:48;;;;;;;6.87;6.37;;;;;;;13.01;100.00;98484.26;1892064;75;26277;-85
2022/09/28 08:00:20;;;;;;;7.33;6.73;;;;;;;12.75;100.00;98482.80;1907501;75;26230;-84
2022/09/28 08:02:52;;;;;;;8.07;7.43;;;;;;;12.00;100.00;98492.18;1907870;74;26382;-85
2022/09/28 08:05:34;;;;;;;8.00;7.30;;;;;;;12.41;100.00;98499.36;1907697;75;26321;-86
2022/09/28 08:08:05;;;;;;;7.83;7.20;;;;;;;12.44;100.00;98497.25;1870065;74;26239;-88
2022/09/28 08:13:34;;;;;;;8.90;7.40;;;;;;;13.54;100.00;98480.86;1980777;71;28037;-83
2022/09/28 08:16:07;;;;;;;7.97;7.17;;;;;;;13.71;100.00;98494.18;1946703;73;26240;-83
2022/09/28 08:18:47;;;;;;;8.40;7.90;;;;;;;13.30;100.00;98498.38;1950206;73;26278;-91
2022/09/28 08:24:19;;;;;;;8.33;7.50;;;;;;;13.37;100.00;98504.94;1818735;76;26323;-84
2022/09/28 08:29:49;;;;;;;8.30;7.50;;;;;;;14.12;100.00;98489.32;2058857;69;28039;-77
2022/09/28 08:35:40;;;;;;;9.03;7.40;;;;;;;13.15;100.00;98502.20;2056562;69;27576;-76
2022/09/28 08:38:15;;;;;;;8.30;7.70;;;;;;;13.31;100.00;98506.37;1988199;71;26249;-77
2022/09/28 08:44:22;;;;;;;8.33;7.57;;;;;;;14.63;100.00;98467.69;1917998;71;28241;-76
2022/09/28 08:49:55;;;;;;;7.70;7.03;;;;;;;15.11;100.00;98493.29;2057434;69;27580;-76
2022/09/28 08:52:32;;;;;;;7.27;6.77;;;;;;;17.98;100.00;98466.76;2020052;71;24213;-76
2022/09/28 08:55:08;;;;;;;7.17;6.67;;;;;;;20.23;100.00;98449.23;2027375;70;26318;-76
2022/09/28 08:57:44;;;;;;;6.97;6.23;;;;;;;22.34;100.00;98449.49;2017312;71;25247;-77
2022/09/28 09:00:21;;;;;;;7.17;6.67;;;;;;;24.81;100.00;98453.91;1987949;71;24161;-77
2022/09/28 09:02:52;;;;;;;7.28;6.72;;;;;;;22.63;100.00;98471.34;2013499;71;24160;-74
2022/09/28 09:05:28;;;;;;;7.70;7.00;;;;;;;24.89;100.00;98470.20;2013349;71;26862;-75
2022/09/28 09:08:09;;;;;;;6.80;6.30;;;;;;;25.57;100.00;98473.09;1933216;74;25363;-74
2022/09/28 09:10:50;;;;;;;6.20;5.80;;;;;;;20.09;100.00;98488.12;2012185;71;24327;-74
2022/09/28 09:13:44;;;;;;;6.53;6.13;;;;;;;17.01;100.00;98493.02;1987598;71;24245;-74
2022/09/28 09:16:23;;;;;;;6.97;6.37;;;;;;;15.00;100.00;98513.49;1987110;71;24141;-74
2022/09/28 09:18:59;;;;;;;7.37;6.77;;;;;;;14.69;100.00;98510.89;1987349;71;24126;-74
2022/09/28 09:21:41;;;;;;;8.40;7.80;;;;;;;13.94;100.00;98522.45;2012860;71;24152;-74
2022/09/28 09:24:26;;;;;;;7.93;7.37;;;;;;;14.39;100.00;98528.02;2012634;71;24157;-74
2022/09/28 09:27:07;;;;;;;7.27;6.77;;;;;;;14.49;100.00;98522.67;1977300;72;26377;-74
2022/09/28 09:29:59;;;;;;;7.43;6.80;;;;;;;13.91;100.00;98531.52;1977811;72;26226;-74
2022/09/28 09:35:50;;;;;;;7.57;6.97;;;;;;;13.39;100.00;98529.06;2019045;71;28159;-73
2022/09/28 09:41:37;;;;;;;7.57;7.03;;;;;;;13.59;100.00;98523.81;2056469;69;28018;-74
2022/09/28 09:44:17;;;;;;;7.23;6.67;;;;;;;13.47;100.00;98528.11;1977471;72;26214;-74
2022/09/28 09:46:53;;;;;;;6.67;6.17;;;;;;;13.27;100.00;98530.56;1943039;73;26223;-74
2022/09/28 09:49:28;;;;;;;7.23;6.73;;;;;;;13.91;100.00;98520.95;1923689;74;26292;-74
2022/09/28 09:52:03;;;;;;;7.03;6.70;;;;;;;13.80;100.00;98526.88;1978458;72;26212;-74
2022/09/28 09:54:41;;;;;;;7.97;7.37;;;;;;;13.41;100.00;98518.38;1942126;72;26201;-74
2022/09/28 09:57:16;;;;;;;7.17;6.57;;;;;;;13.32;100.00;98519.72;1978157;72;26233;-77
2022/09/28 09:59:49;;;;;;;7.43;7.00;;;;;;;13.47;100.00;98520.32;1914769;72;26236;-76
2022/09/28 10:02:26;;;;;;;7.53;6.90;;;;;;;13.33;100.00;98529.13;1943060;74;26320;-76
2022/09/28 10:05:00;;;;;;;6.60;6.30;;;;;;;13.68;100.00;98523.04;1924225;74;26881;-76
2022/09/28 10:07:35;;;;;;;6.60;6.30;;;;;;;13.71;100.00;98517.31;1942433;72;26216;-76
2022/09/28 10:10:13;;;;;;;7.73;7.07;;;;;;;13.87;100.00;98517.27;1978489;72;26313;-76
2022/09/28 10:12:44;;;;;;;6.80;6.50;;;;;;;13.82;100.00;98513.39;1978366;72;26302;-77
2022/09/28 10:15:18;;;;;;;6.97;6.53;;;;;;;13.88;100.00;98518.31;1978530;72;26213;-76
2022/09/28 10:17:49;;;;;;;7.50;7.10;;;;;;;13.72;100.00;98513.35;1978097;72;26284;-76
2022/09/28 10:20:21;;;;;;;6.90;6.30;;;;;;;13.82;100.00;98507.80;1907192;73;26369;-77
2022/09/28 10:22:55;;;;;;;6.60;6.30;;;;;;;13.94;100.00;98514.66;1910317;74;27432;-77
2022/09/28 10:25:28;;;;;;;6.50;6.00;;;;;;;14.18;100.00;98499.62;1923323;74;26918;-77
2022/09/28 10:28:07;;;;;;;6.80;6.13;;;;;;;14.09;100.00;98496.45;1941816;74;27568;-78
2022/09/28 10:30:43;;;;;;;5.93;5.53;;;;;;;14.27;100.00;98500.22;1941790;74;26243;-77
2022/09/28 10:33:32;;;;;;;5.57;5.13;;;;;;;14.58;100.00;98495.33;1941797;74;26716;-77
2022/09/28 10:36:09;;;;;;;5.60;5.30;;;;;;;14.59;100.00;98486.33;1980325;72;26242;-76
2022/09/28 10:38:43;;;;;;;5.10;4.80;;;;;;;14.48;100.00;98493.70;1941640;74;26214;-76
2022/09/28 10:41:15;;;;;;;5.80;5.40;;;;;;;13.96;100.00;98496.36;1979633;72;26364;-76
2022/09/28 10:47:00;;;;;;;5.70;5.40;;;;;;;14.43;100.00;98485.03;1980473;72;28148;-76
2022/09/28 10:52:45;;;;;;;5.20;4.90;;;;;;;14.68;100.00;98491.69;2057641;69;28310;-75
2022/09/28 10:55:31;;;;;;;5.47;5.17;;;;;;;14.69;100.00;98488.53;2015080;71;26207;-75
2022/09/28 10:58:22;;;;;;;5.03;4.80;;;;;;;14.85;100.00;98492.61;2013551;71;26205;-81
2022/09/28 11:01:04;;;;;;;5.20;5.00;;;;;;;14.15;100.00;98487.21;2013470;71;26200;-81
2022/09/28 11:03:37;;;;;;;4.40;4.20;;;;;;;13.93;100.00;98490.70;2013256;71;26636;-80
2022/09/28 11:06:09;;;;;;;5.37;4.97;;;;;;;14.36;100.00;98477.11;2013862;71;26282;-80
2022/09/28 11:08:45;;;;;;;4.93;4.73;;;;;;;15.01;100.00;98477.97;1935133;74;26709;-81
2022/09/28 11:11:19;;;;;;;5.33;5.13;;;;;;;15.20;100.00;98477.88;1935189;74;26733;-82
2022/09/28 11:13:52;;;;;;;4.80;4.60;;;;;;;15.17;100.00;98475.84;1935017;74;26715;-82
2022/09/28 11:16:28;;;;;;;4.97;4.00;;;;;;;15.16;100.00;98472.02;1934978;74;24121;-81
2022/09/28 11:19:01;;;;;;;10.60;5.43;;;;;;;15.44;100.00;98480.30;2013499;71;24993;-80
2022/09/28 11:21:35;;;;;;;5.50;5.00;;;;;;;16.19;100.00;98473.02;2013372;71;26281;-80
2022/09/28 11:27:13;;;;;;;5.93;5.43;;;;;;;16.71;100.00;98467.28;2055976;69;26095;-78
2022/09/28 11:29:49;;;;;;;5.83;5.37;;;;;;;16.64;100.00;98468.61;2021674;70;24154;-78
2022/09/28 11:32:21;;;;;;;5.87;5.47;;;;;;;16.53;100.00;98466.83;2021543;71;24227;-78
2022/09/28 11:34:55;;;;;;;6.13;5.70;;;;;;;16.18;100.00;98467.19;1923911;74;26316;-78
2022/09/28 11:40:43;;;;;;;6.47;5.90;;;;;;;16.82;100.00;98454.77;2056190;69;25646;-78
2022/09/28 11:43:20;;;;;;;6.00;5.60;;;;;;;17.04;100.00;98457.19;2022433;71;24219;-78
2022/09/28 11:45:55;;;;;;;5.97;5.67;;;;;;;16.74;100.00;98473.52;2021553;71;24178;-78
2022/09/28 11:48:30;;;;;;;5.50;5.30;;;;;;;16.39;100.00;98473.06;2022194;71;24458;-78
2022/09/28 11:54:13;;;;;;;6.50;5.53;;;;;;;16.24;100.00;98458.67;2057778;69;25512;-78
2022/09/28 11:56:46;;;;;;;6.70;6.27;;;;;;;16.46;100.00;98449.94;1947203;73;24175;-78
2022/09/28 11:59:20;;;;;;;6.70;6.40;;;;;;;16.57;100.00;98450.30;2014099;71;24157;-78
2022/09/28 12:01:56;;;;;;;6.80;6.50;;;;;;;16.86;100.00;98450.62;2012835;71;24156;-78
2022/09/28 12:04:31;;;;;;;6.70;6.50;;;;;;;17.59;100.00;98432.22;2012897;71;24156;-78
2022/09/28 12:07:06;;;;;;;6.80;6.43;;;;;;;17.64;100.00;98435.26;2013294;71;24159;-78
2022/09/28 12:09:42;;;;;;;6.70;6.40;;;;;;;17.79;100.00;98437.58;1987661;71;24160;-78
2022/09/28 12:15:19;;;;;;;6.50;6.30;;;;;;;18.36;100.00;98440.86;2058754;69;26087;-78
2022/09/28 12:20:56;;;;;;;7.37;7.07;;;;;;;18.69;100.00;98430.56;2043144;69;25846;-78
2022/09/28 12:23:32;;;;;;;7.13;6.83;;;;;;;18.60;100.00;98436.57;2003935;70;24276;-78
2022/09/28 12:29:07;;;;;;;6.23;5.93;;;;;;;17.88;100.00;98432.42;2056643;69;25641;-78
2022/09/28 12:31:41;;;;;;;6.63;6.40;;;;;;;17.52;100.00;98437.77;2022415;70;24158;-78
2022/09/28 12:34:13;;;;;;;6.30;6.00;;;;;;;17.33;100.00;98435.82;2022310;70;24138;-78
2022/09/28 12:40:05;;;;;;;6.87;6.60;;;;;;;16.81;100.00;98432.93;1928896;73;30902;-79
2022/09/28 12:42:54;;;;;;;6.50;6.20;;;;;;;17.12;100.00;98427.41;1892634;74;24300;-80
2022/09/28 12:45:44;;;;;;;6.17;5.83;;;;;;;17.27;100.00;98422.74;1894160;75;24809;-79
2022/09/28 12:48:47;;;;;;;6.20;5.97;;;;;;;17.31;100.00;98426.38;1899263;74;24798;-81
2022/09/28 12:51:25;;;;;;;6.50;6.20;;;;;;;17.32;100.00;98421.58;1862512;75;24793;-81
2022/09/28 12:54:07;;;;;;;6.23;6.03;;;;;;;17.42;100.00;98419.42;1900449;74;24267;-82
2022/09/28 12:56:44;;;;;;;5.90;5.60;;;;;;;17.91;100.00;98412.77;1902433;74;24296;-81
2022/09/28 12:59:24;;;;;;;5.50;5.30;;;;;;;17.58;100.00;98419.41;1900926;74;24680;-80
2022/09/28 13:02:18;;;;;;;6.03;5.70;;;;;;;17.15;100.00;98424.45;1901047;74;24167;-79
2022/09/28 13:05:02;;;;;;;5.93;5.73;;;;;;;17.06;100.00;98422.56;1867785;75;24189;-79
2022/09/28 13:10:47;;;;;;;4.70;4.50;;;;;;;17.37;100.00;98415.61;2011897;70;30827;-80
2022/09/28 13:13:28;;;;;;;4.47;4.27;;;;;;;17.53;100.00;98418.92;1964026;72;24300;-79
2022/09/28 13:19:07;;;;;;;5.80;5.50;;;;;;;17.39;100.00;98414.01;2056877;69;25748;-77
2022/09/28 13:21:42;;;;;;;5.30;5.10;;;;;;;17.24;100.00;98420.09;2022482;71;24216;-78
2022/09/28 13:24:16;;;;;;;5.60;5.40;;;;;;;17.01;100.00;98408.30;2021403;71;24166;-77
2022/09/28 13:26:49;;;;;;;5.03;4.83;;;;;;;17.06;100.00;98403.73;1986448;72;24187;-77
2022/09/28 13:29:21;;;;;;;6.00;5.47;;;;;;;17.03;100.00;98403.09;1986474;72;24246;-77
2022/09/28 13:31:55;;;;;;;5.90;5.60;;;;;;;16.94;100.00;98401.83;1986092;72;26654;-78
2022/09/28 13:34:29;;;;;;;5.60;5.40;;;;;;;17.11;100.00;98397.78;1952021;72;24759;-78
2022/09/28 13:40:59;;;;;;;5.20;5.00;;;;;;;16.80;100.00;98407.51;2056593;69;25639;-77
2022/09/28 13:43:33;;;;;;;5.50;5.30;;;;;;;16.73;100.00;98398.20;1978553;72;24140;-79
2022/09/28 13:46:07;;;;;;;5.80;5.40;;;;;;;16.91;100.00;98401.98;1909164;74;26974;-77
2022/09/28 13:51:47;;;;;;;5.00;4.73;;;;;;;17.35;100.00;98392.73;2059363;69;25758;-80
2022/09/28 13:57:36;;;;;;;5.80;5.50;;;;;;;18.01;100.00;98388.13;2006848;70;31338;-80
2022/09/28 14:00:18;;;;;;;6.13;5.73;;;;;;;18.56;100.00;98382.34;1960667;71;24222;-80
2022/09/28 14:02:54;;;;;;;5.97;5.70;;;;;;;18.94;100.00;98370.34;1963085;72;24221;-80
2022/09/28 14:05:50;;;;;;;6.17;5.97;;;;;;;18.86;100.00;98377.77;1963173;73;24165;-81
2022/09/28 14:08:33;;;;;;;6.47;6.17;;;;;;;18.60;100.00;98379.74;1960497;73;24249;-81
2022/09/28 14:11:30;;;;;;;6.62;6.33;;;;;;;18.54;100.00;98380.52;1941288;73;24177;-80
2022/09/28 14:14:03;;;;;;;5.70;5.50;;;;;;;18.06;100.00;98383.54;1961636;73;24181;-79
2022/09/28 14:16:37;;;;;;;5.90;5.70;;;;;;;17.57;100.00;98384.07;1963277;72;24250;-80
2022/09/28 14:19:12;;;;;;;6.03;5.83;;;;;;;17.33;100.00;98388.13;1962745;72;24677;-80
2022/09/28 14:21:57;;;;;;;6.77;6.40;;;;;;;17.07;100.00;98385.70;1963054;73;26791;-80
2022/09/28 14:28:01;;;;;;;6.53;6.33;;;;;;;17.36;100.00;98374.11;1992903;71;26425;-79
2022/09/28 14:33:44;;;;;;;6.00;5.80;;;;;;;17.69;100.00;98377.34;2038902;69;26132;-78
2022/09/28 14:42:17;;;;;;;5.70;5.43;;;;;;;18.40;100.00;98370.63;1938467;73;24152;-77
2022/09/28 14:45:25;;;;;;;5.95;5.65;;;;;;;21.98;100.00;98348.77;1963394;73;24199;-78
2022/09/28 14:48:14;;;;;;;5.87;5.60;;;;;;;26.06;100.00;98338.70;1933562;73;25396;-79
2022/09/28 14:50:54;;;;;;;5.78;5.53;;;;;;;24.36;100.00;98356.36;1932543;73;24740;-79
2022/09/28 14:53:27;;;;;;;6.03;5.80;;;;;;;21.48;100.00;98361.20;2008588;70;24724;-78
2022/09/28 14:56:02;;;;;;;5.97;5.53;;;;;;;20.51;100.00;98365.95;2021728;70;24728;-78
2022/09/28 14:58:35;;;;;;;5.67;5.47;;;;;;;20.08;100.00;98370.96;2019781;70;24199;-79
2022/09/28 15:04:10;;;;;;;5.15;4.85;;;;;;;19.42;100.00;98372.73;2010294;71;25763;-77
2022/09/28 15:06:48;;;;;;;5.42;5.12;;;;;;;19.23;100.00;98373.14;1947071;73;24288;-81
2022/09/28 15:09:30;;;;;;;5.25;5.05;;;;;;;19.10;100.00;98373.55;1947212;73;24610;-80
2022/09/28 15:12:06;;;;;;;5.97;5.67;;;;;;;19.03;100.00;98372.75;1947406;73;24251;-80
2022/09/28 15:14:43;;;;;;;5.60;5.40;;;;;;;18.99;100.00;98369.95;1874246;76;24211;-85
2022/09/28 15:17:18;;;;;;;5.60;5.40;;;;;;;18.99;100.00;98367.13;1872700;76;24199;-77
2022/09/28 15:19:54;;;;;;;6.12;5.92;;;;;;;18.80;100.00;98365.30;1879850;76;24378;-78
2022/09/28 15:22:29;;;;;;;6.15;5.95;;;;;;;19.01;100.00;98369.52;1846605;76;24809;-78
2022/09/28 15:25:01;;;;;;;6.10;5.90;;;;;;;19.90;100.00;98354.12;1866857;76;24253;-78
2022/09/28 15:27:40;;;;;;;6.33;6.00;;;;;;;22.41;100.00;98342.75;1846568;77;24205;-78
2022/09/28 15:36:25;;;;;;;5.87;5.58;;;;;;;19.97;100.00;98366.79;1947073;73;24129;-77
2022/09/28 15:38:59;;;;;;;6.22;5.95;;;;;;;19.60;100.00;98372.11;1906597;75;24262;-77